sensor_id;sensor_type;location;lat;lon;timestamp;pressure;altitude;pressure_sealevel;temperature;humidity
22872;BME280;11603;44.910;8.630;2023-01-27T00:00:54;100270.59;;;4.66;100.00
22872;BME280;11603;44.910;8.630;2023-01-27T00:03:20;100279.63;;;4.62;100.00
22872;BME280;11603;44.910;8.630;2023-01-27T00:05:46;100272.00;;;4.54;100.00
22872;BME280;11603;44.910;8.630;2023-01-27T00:08:12;100275.59;;;4.53;100.00
22872;BME280;11603;44.910;8.630;2023-01-27T00:10:38;100268.41;;;4.55;100.00
22872;BME280;11603;44.910;8.630;2023-01-27T00:13:03;100259.44;;;4.59;100.00
22872;BME280;11603;44.910;8.630;2023-01-27T00:15:47;100262.00;;;4.61;100.00
22872;BME280;11603;44.910;8.630;2023-01-27T00:18:14;100266.13;;;4.68;100.00
22872;BME280;11603;44.910;8.630;2023-01-27T00:20:40;100261.03;;;4.63;100.00
22872;BME280;11603;44.910;8.630;2023-01-27T00:23:25;100264.72;;;4.59;100.00
22872;BME280;11603;44.910;8.630;2023-01-27T00:26:14;100263.66;;;4.63;100.00
22872;BME280;11603;44.910;8.630;2023-01-27T00:28:42;100258.63;;;4.57;100.00
22872;BME280;11603;44.910;8.630;2023-01-27T00:31:10;100262.34;;;4.53;100.00
22872;BME280;11603;44.910;8.630;2023-01-27T00:33:55;100260.75;;;4.49;100.00
22872;BME280;11603;44.910;8.630;2023-01-27T00:36:29;100264.44;;;4.45;100.00
22872;BME280;11603;44.910;8.630;2023-01-27T00:38:55;100256.44;;;4.47;100.00
22872;BME280;11603;44.910;8.630;2023-01-27T00:41:21;100259.28;;;4.42;100.00
22872;BME280;11603;44.910;8.630;2023-01-27T00:43:51;100257.50;;;4.43;100.00
22872;BME280;11603;44.910;8.630;2023-01-27T00:46:22;100251.28;;;4.44;100.00
22872;BME280;11603;44.910;8.630;2023-01-27T00:48:48;100257.50;;;4.43;100.00
22872;BME280;11603;44.910;8.630;2023-01-27T00:51:14;100253.94;;;4.44;100.00
22872;BME280;11603;44.910;8.630;2023-01-27T00:53:40;100253.53;;;4.53;100.00
22872;BME280;11603;44.910;8.630;2023-01-27T00:56:06;100251.03;;;4.50;100.00
22872;BME280;11603;44.910;8.630;2023-01-27T00:58:32;100251.19;;;4.45;100.00
22872;BME280;11603;44.910;8.630;2023-01-27T01:00:59;100251.41;;;4.41;100.00
22872;BME280;11603;44.910;8.630;2023-01-27T01:03:27;100254.44;;;4.32;100.00
22872;BME280;11603;44.910;8.630;2023-01-27T01:05:56;100256.28;;;4.30;100.00
22872;BME280;11603;44.910;8.630;2023-01-27T01:08:23;100257.41;;;4.24;100.00
22872;BME280;11603;44.910;8.630;2023-01-27T01:10:49;100265.41;;;4.22;100.00
22872;BME280;11603;44.910;8.630;2023-01-27T01:13:14;100257.53;;;4.21;100.00
22872;BME280;11603;44.910;8.630;2023-01-27T01:15:44;100256.06;;;4.14;100.00
22872;BME280;11603;44.910;8.630;2023-01-27T01:18:10;100254.28;;;4.14;100.00
22872;BME280;11603;44.910;8.630;2023-01-27T01:20:38;100257.78;;;4.15;100.00
22872;BME280;11603;44.910;8.630;2023-01-27T01:23:05;100257.09;;;4.10;100.00
22872;BME280;11603;44.910;8.630;2023-01-27T01:25:31;100263.31;;;4.09;100.00
22872;BME280;11603;44.910;8.630;2023-01-27T01:27:56;100263.22;;;4.12;100.00
22872;BME280;11603;44.910;8.630;2023-01-27T01:30:22;100252.06;;;4.04;100.00
22872;BME280;11603;44.910;8.630;2023-01-27T01:32:52;100248.69;;;4.00;100.00
22872;BME280;11603;44.910;8.630;2023-01-27T01:35:18;100251.28;;;4.02;100.00
22872;BME280;11603;44.910;8.630;2023-01-27T01:37:43;100252.25;;;3.99;100.00
22872;BME280;11603;44.910;8.630;2023-01-27T01:40:09;100259.75;;;3.88;100.00
22872;BME280;11603;44.910;8.630;2023-01-27T01:42:57;100252.25;;;3.77;100.00
22872;BME280;11603;44.910;8.630;2023-01-27T01:48:20;100258.66;;;3.94;100.00
22872;BME280;11603;44.910;8.630;2023-01-27T01:50:51;100253.13;;;4.00;100.00
22872;BME280;11603;44.910;8.630;2023-01-27T01:53:20;100254.34;;;4.13;100.00
22872;BME280;11603;44.910;8.630;2023-01-27T01:55:51;100255.56;;;4.26;100.00
22872;BME280;11603;44.910;8.630;2023-01-27T01:58:17;100254.34;;;4.13;100.00
22872;BME280;11603;44.910;8.630;2023-01-27T02:00:45;100252.78;;;4.29;100.00
22872;BME280;11603;44.910;8.630;2023-01-27T02:03:12;100260.53;;;4.34;100.00
22872;BME280;11603;44.910;8.630;2023-01-27T02:05:41;100250.00;;;4.32;100.00
22872;BME280;11603;44.910;8.630;2023-01-27T02:08:16;100248.94;;;4.36;100.00
22872;BME280;11603;44.910;8.630;2023-01-27T02:10:44;100252.50;;;4.35;100.00
22872;BME280;11603;44.910;8.630;2023-01-27T02:13:10;100257.56;;;4.41;100.00
22872;BME280;11603;44.910;8.630;2023-01-27T02:15:36;100251.41;;;4.41;100.00
22872;BME280;11603;44.910;8.630;2023-01-27T02:18:02;100254.50;;;4.50;100.00
22872;BME280;11603;44.910;8.630;2023-01-27T02:20:40;100247.16;;;4.57;100.00
22872;BME280;11603;44.910;8.630;2023-01-27T02:26:27;100247.38;;;4.52;100.00
22872;BME280;11603;44.910;8.630;2023-01-27T02:28:34;100244.78;;;4.51;100.00
22872;BME280;11603;44.910;8.630;2023-01-27T02:30:59;100246.72;;;4.47;100.00
22872;BME280;11603;44.910;8.630;2023-01-27T02:33:25;100252.81;;;4.49;100.00
22872;BME280;11603;44.910;8.630;2023-01-27T02:38:17;100251.47;;;4.39;100.00
22872;BME280;11603;44.910;8.630;2023-01-27T02:40:45;100250.72;;;4.36;100.00
22872;BME280;11603;44.910;8.630;2023-01-27T02:43:12;100250.06;;;4.31;100.00
22872;BME280;11603;44.910;8.630;2023-01-27T02:45:37;100249.28;;;4.29;100.00
22872;BME280;11603;44.910;8.630;2023-01-27T02:48:03;100245.84;;;4.26;100.00
22872;BME280;11603;44.910;8.630;2023-01-27T02:50:30;100245.16;;;4.21;100.00
22872;BME280;11603;44.910;8.630;2023-01-27T02:52:55;100244.34;;;4.19;100.00
22872;BME280;11603;44.910;8.630;2023-01-27T02:55:21;100242.47;;;4.23;100.00
22872;BME280;11603;44.910;8.630;2023-01-27T02:57:48;100248.66;;;4.22;100.00
22872;BME280;11603;44.910;8.630;2023-01-27T03:00:28;100248.66;;;4.22;100.00
22872;BME280;11603;44.910;8.630;2023-01-27T03:02:53;100243.69;;;4.14;100.00
22872;BME280;11603;44.910;8.630;2023-01-27T03:05:19;100247.88;;;4.20;100.00
22872;BME280;11603;44.910;8.630;2023-01-27T03:07:44;100248.63;;;4.23;100.00
22872;BME280;11603;44.910;8.630;2023-01-27T03:10:10;100236.16;;;4.25;100.00
22872;BME280;11603;44.910;8.630;2023-01-27T03:12:35;100240.41;;;4.30;100.00
22872;BME280;11603;44.910;8.630;2023-01-27T03:15:01;100231.34;;;4.35;100.00
22872;BME280;11603;44.910;8.630;2023-01-27T03:17:46;100233.13;;;4.35;100.00
22872;BME280;11603;44.910;8.630;2023-01-27T03:20:31;100244.38;;;4.40;100.00
22872;BME280;11603;44.910;8.630;2023-01-27T03:22:57;100240.75;;;4.42;100.00
22872;BME280;11603;44.910;8.630;2023-01-27T03:25:24;100241.66;;;4.21;100.00
22872;BME280;11603;44.910;8.630;2023-01-27T03:27:55;100239.44;;;4.10;100.00
22872;BME280;11603;44.910;8.630;2023-01-27T03:30:28;100246.03;;;4.00;100.00
22872;BME280;11603;44.910;8.630;2023-01-27T03:33:06;100239.78;;;4.03;100.00
22872;BME280;11603;44.910;8.630;2023-01-27T03:35:55;100238.84;;;4.04;100.00
22872;BME280;11603;44.910;8.630;2023-01-27T03:38:48;100236.06;;;4.07;100.00
22872;BME280;11603;44.910;8.630;2023-01-27T03:41:32;100236.00;;;4.08;100.00
22872;BME280;11603;44.910;8.630;2023-01-27T03:44:17;100238.63;;;4.08;100.00
22872;BME280;11603;44.910;8.630;2023-01-27T03:47:01;100235.22;;;4.06;100.00
22872;BME280;11603;44.910;8.630;2023-01-27T03:49:27;100231.75;;;4.04;100.00
22872;BME280;11603;44.910;8.630;2023-01-27T03:51:52;100237.97;;;4.03;100.00
22872;BME280;11603;44.910;8.630;2023-01-27T03:54:18;100235.50;;;3.99;100.00
22872;BME280;11603;44.910;8.630;2023-01-27T03:56:43;100243.63;;;3.94;100.00
22872;BME280;11603;44.910;8.630;2023-01-27T03:59:10;100230.41;;;3.94;100.00
22872;BME280;11603;44.910;8.630;2023-01-27T04:01:35;100240.06;;;3.95;100.00
22872;BME280;11603;44.910;8.630;2023-01-27T04:04:01;100241.91;;;3.93;100.00
22872;BME280;11603;44.910;8.630;2023-01-27T04:06:45;100236.31;;;4.01;100.00
22872;BME280;11603;44.910;8.630;2023-01-27T04:09:34;100238.72;;;4.07;100.00
22872;BME280;11603;44.910;8.630;2023-01-27T04:12:02;100244.06;;;4.05;100.00
22872;BME280;11603;44.910;8.630;2023-01-27T04:14:31;100244.75;;;4.10;100.00
22872;BME280;11603;44.910;8.630;2023-01-27T04:17:05;100244.63;;;4.13;100.00
22872;BME280;11603;44.910;8.630;2023-01-27T04:19:31;100246.22;;;4.17;100.00
22872;BME280;11603;44.910;8.630;2023-01-27T04:21:57;100248.13;;;4.14;100.00
22872;BME280;11603;44.910;8.630;2023-01-27T04:24:24;100244.75;;;4.10;100.00
22872;BME280;11603;44.910;8.630;2023-01-27T04:27:00;100248.06;;;4.15;100.00
22872;BME280;11603;44.910;8.630;2023-01-27T04:29:28;100249.41;;;4.25;100.00
22872;BME280;11603;44.910;8.630;2023-01-27T04:31:55;100250.25;;;4.26;100.00
22872;BME280;11603;44.910;8.630;2023-01-27T04:34:23;100248.47;;;4.26;100.00
22872;BME280;11603;44.910;8.630;2023-01-27T04:36:48;100244.09;;;4.25;100.00
22872;BME280;11603;44.910;8.630;2023-01-27T04:39:14;100248.28;;;4.31;100.00
22872;BME280;11603;44.910;8.630;2023-01-27T04:41:40;100248.94;;;4.36;100.00
22872;BME280;11603;44.910;8.630;2023-01-27T04:44:06;100255.06;;;4.38;100.00
22872;BME280;11603;44.910;8.630;2023-01-27T04:46:33;100254.38;;;4.33;100.00
22872;BME280;11603;44.910;8.630;2023-01-27T04:48:59;100259.69;;;4.33;100.00
22872;BME280;11603;44.910;8.630;2023-01-27T04:51:25;100247.16;;;4.37;100.00
22872;BME280;11603;44.910;8.630;2023-01-27T04:53:51;100249.50;;;4.44;100.00
22872;BME280;11603;44.910;8.630;2023-01-27T04:56:29;100246.09;;;4.41;100.00
22872;BME280;11603;44.910;8.630;2023-01-27T04:58:59;100238.72;;;4.49;100.00
22872;BME280;11603;44.910;8.630;2023-01-27T05:01:25;100249.97;;;4.54;100.00
22872;BME280;11603;44.910;8.630;2023-01-27T05:03:51;100252.81;;;4.49;100.00
22872;BME280;11603;44.910;8.630;2023-01-27T05:06:17;100252.00;;;4.47;100.00
22872;BME280;11603;44.910;8.630;2023-01-27T05:08:42;100258.16;;;4.48;100.00
22872;BME280;11603;44.910;8.630;2023-01-27T05:11:08;100256.38;;;4.48;100.00
22872;BME280;11603;44.910;8.630;2023-01-27T05:13:33;100266.91;;;4.50;100.00
22872;BME280;11603;44.910;8.630;2023-01-27T05:16:20;100269.81;;;4.44;100.00
22872;BME280;11603;44.910;8.630;2023-01-27T05:18:47;100267.22;;;4.42;100.00
22872;BME280;11603;44.910;8.630;2023-01-27T05:21:16;100270.69;;;4.44;100.00
22872;BME280;11603;44.910;8.630;2023-01-27T05:23:42;100277.09;;;4.39;100.00
22872;BME280;11603;44.910;8.630;2023-01-27T05:28:39;100273.88;;;4.31;100.00
22872;BME280;11603;44.910;8.630;2023-01-27T05:31:16;100281.16;;;4.25;100.00
22872;BME280;11603;44.910;8.630;2023-01-27T05:33:47;100282.84;;;4.28;100.00
22872;BME280;11603;44.910;8.630;2023-01-27T05:36:14;100284.38;;;4.34;100.00
22872;BME280;11603;44.910;8.630;2023-01-27T05:38:40;100281.97;;;4.28;100.00
22872;BME280;11603;44.910;8.630;2023-01-27T05:41:08;100285.84;;;4.19;100.00
22872;BME280;11603;44.910;8.630;2023-01-27T05:43:36;100292.19;;;4.15;100.00
22872;BME280;11603;44.910;8.630;2023-01-27T05:46:10;100295.69;;;4.15;100.00
22872;BME280;11603;44.910;8.630;2023-01-27T05:48:38;100293.72;;;4.20;100.00
22872;BME280;11603;44.910;8.630;2023-01-27T05:51:04;100297.97;;;4.24;100.00
22872;BME280;11603;44.910;8.630;2023-01-27T05:53:30;100288.31;;;4.23;100.00
22872;BME280;11603;44.910;8.630;2023-01-27T05:55:55;100298.97;;;4.22;100.00
22872;BME280;11603;44.910;8.630;2023-01-27T05:58:21;100300.69;;;4.23;100.00
22872;BME280;11603;44.910;8.630;2023-01-27T06:00:47;100295.88;;;4.33;100.00
22872;BME280;11603;44.910;8.630;2023-01-27T06:03:13;100296.59;;;4.36;100.00
22872;BME280;11603;44.910;8.630;2023-01-27T06:05:54;100300.94;;;4.39;100.00
22872;BME280;11603;44.910;8.630;2023-01-27T06:08:21;100299.00;;;4.42;100.00
22872;BME280;11603;44.910;8.630;2023-01-27T06:10:47;100307.63;;;4.47;100.00
22872;BME280;11603;44.910;8.630;2023-01-27T06:13:13;100307.56;;;4.49;100.00
22872;BME280;11603;44.910;8.630;2023-01-27T06:15:42;100300.34;;;4.52;100.00
22872;BME280;11603;44.910;8.630;2023-01-27T06:18:08;100299.38;;;4.55;100.00
22872;BME280;11603;44.910;8.630;2023-01-27T06:20:34;100297.50;;;4.57;100.00
22872;BME280;11603;44.910;8.630;2023-01-27T06:22:59;100306.84;;;4.65;100.00
22872;BME280;11603;44.910;8.630;2023-01-27T06:25:26;100310.44;;;4.64;100.00
22872;BME280;11603;44.910;8.630;2023-01-27T06:27:57;100309.50;;;4.65;100.00
22872;BME280;11603;44.910;8.630;2023-01-27T06:30:23;100312.72;;;4.72;100.00
22872;BME280;11603;44.910;8.630;2023-01-27T06:32:49;100311.88;;;4.72;100.00
22872;BME280;11603;44.910;8.630;2023-01-27T06:35:14;100309.16;;;4.73;100.00
22872;BME280;11603;44.910;8.630;2023-01-27T06:37:40;100310.63;;;4.80;100.00
22872;BME280;11603;44.910;8.630;2023-01-27T06:40:05;100315.84;;;4.82;100.00
22872;BME280;11603;44.910;8.630;2023-01-27T06:42:34;100313.94;;;4.85;100.00
22872;BME280;11603;44.910;8.630;2023-01-27T06:44:59;100316.59;;;4.85;100.00
22872;BME280;11603;44.910;8.630;2023-01-27T06:47:24;100317.56;;;4.83;100.00
22872;BME280;11603;44.910;8.630;2023-01-27T06:49:50;100318.38;;;4.85;100.00
22872;BME280;11603;44.910;8.630;2023-01-27T06:52:15;100327.09;;;4.87;100.00
22872;BME280;11603;44.910;8.630;2023-01-27T06:54:41;100326.13;;;4.89;100.00
22872;BME280;11603;44.910;8.630;2023-01-27T06:57:09;100331.38;;;4.91;100.00
22872;BME280;11603;44.910;8.630;2023-01-27T06:59:35;100336.88;;;4.86;100.00
22872;BME280;11603;44.910;8.630;2023-01-27T07:02:00;100325.00;;;4.95;100.00
22872;BME280;11603;44.910;8.630;2023-01-27T07:04:26;100332.91;;;4.96;100.00
22872;BME280;11603;44.910;8.630;2023-01-27T07:06:51;100341.41;;;5.03;100.00
22872;BME280;11603;44.910;8.630;2023-01-27T07:09:17;100338.97;;;5.19;100.00
22872;BME280;11603;44.910;8.630;2023-01-27T07:11:42;100340.56;;;5.23;100.00
22872;BME280;11603;44.910;8.630;2023-01-27T07:14:09;100341.28;;;5.26;100.00
22872;BME280;11603;44.910;8.630;2023-01-27T07:16:34;100343.88;;;5.28;100.00
22872;BME280;11603;44.910;8.630;2023-01-27T07:18:59;100351.34;;;5.38;100.00
22872;BME280;11603;44.910;8.630;2023-01-27T07:21:25;100359.56;;;5.52;100.00
22872;BME280;11603;44.910;8.630;2023-01-27T07:23:50;100360.91;;;5.42;100.00
22872;BME280;11603;44.910;8.630;2023-01-27T07:26:16;100357.38;;;5.42;100.00
22872;BME280;11603;44.910;8.630;2023-01-27T07:28:41;100356.88;;;5.34;100.00
22872;BME280;11603;44.910;8.630;2023-01-27T07:31:07;100353.41;;;5.32;100.00
22872;BME280;11603;44.910;8.630;2023-01-27T07:33:32;100358.19;;;5.24;100.00
22872;BME280;11603;44.910;8.630;2023-01-27T07:35:58;100362.00;;;5.18;100.00
22872;BME280;11603;44.910;8.630;2023-01-27T07:38:24;100362.56;;;5.25;100.00
22872;BME280;11603;44.910;8.630;2023-01-27T07:40:49;100359.63;;;5.31;100.00
22872;BME280;11603;44.910;8.630;2023-01-27T07:43:15;100370.03;;;5.35;100.00
22872;BME280;11603;44.910;8.630;2023-01-27T07:45:41;100370.19;;;5.32;100.00
22872;BME280;11603;44.910;8.630;2023-01-27T07:48:08;100369.59;;;5.26;100.00
22872;BME280;11603;44.910;8.630;2023-01-27T07:50:38;100367.84;;;5.25;100.00
22872;BME280;11603;44.910;8.630;2023-01-27T07:53:04;100375.16;;;5.20;100.00
22872;BME280;11603;44.910;8.630;2023-01-27T07:55:30;100378.72;;;5.19;100.00
22872;BME280;11603;44.910;8.630;2023-01-27T07:57:56;100379.59;;;5.19;100.00
22872;BME280;11603;44.910;8.630;2023-01-27T08:00:22;100384.69;;;5.24;100.00
22872;BME280;11603;44.910;8.630;2023-01-27T08:02:52;100388.41;;;5.20;100.00
22872;BME280;11603;44.910;8.630;2023-01-27T08:05:18;100389.06;;;5.25;100.00
22872;BME280;11603;44.910;8.630;2023-01-27T08:07:48;100383.00;;;5.23;100.00
22872;BME280;11603;44.910;8.630;2023-01-27T08:10:15;100388.88;;;5.29;100.00
22872;BME280;11603;44.910;8.630;2023-01-27T08:12:42;100394.66;;;5.39;100.00
22872;BME280;11603;44.910;8.630;2023-01-27T08:15:08;100400.03;;;5.37;100.00
22872;BME280;11603;44.910;8.630;2023-01-27T08:17:34;100400.69;;;5.42;100.00
22872;BME280;11603;44.910;8.630;2023-01-27T08:20:00;100404.66;;;5.52;100.00
22872;BME280;11603;44.910;8.630;2023-01-27T08:22:27;100404.78;;;5.49;100.00
22872;BME280;11603;44.910;8.630;2023-01-27T08:24:53;100411.59;;;5.55;100.00
22872;BME280;11603;44.910;8.630;2023-01-27T08:27:18;100398.72;;;5.66;100.00
22872;BME280;11603;44.910;8.630;2023-01-27T08:29:44;100402.09;;;5.70;100.00
22872;BME280;11603;44.910;8.630;2023-01-27T08:32:09;100399.25;;;5.74;100.00
22872;BME280;11603;44.910;8.630;2023-01-27T08:34:36;100409.66;;;5.79;100.00
22872;BME280;11603;44.910;8.630;2023-01-27T08:37:01;100412.94;;;5.84;100.00
22872;BME280;11603;44.910;8.630;2023-01-27T08:39:27;100417.22;;;5.88;100.00
22872;BME280;11603;44.910;8.630;2023-01-27T08:41:53;100419.88;;;5.88;100.00
22872;BME280;11603;44.910;8.630;2023-01-27T08:44:18;100430.41;;;5.89;100.00
22872;BME280;11603;44.910;8.630;2023-01-27T08:46:43;100429.34;;;5.93;100.00
22872;BME280;11603;44.910;8.630;2023-01-27T08:49:10;100428.63;;;5.90;100.00
22872;BME280;11603;44.910;8.630;2023-01-27T08:51:38;100436.72;;;5.87;100.00
22872;BME280;11603;44.910;8.630;2023-01-27T08:54:05;100435.53;;;5.94;100.00
22872;BME280;11603;44.910;8.630;2023-01-27T08:56:30;100439.69;;;6.00;100.00
22872;BME280;11603;44.910;8.630;2023-01-27T08:58:56;100438.81;;;5.99;100.00
22872;BME280;11603;44.910;8.630;2023-01-27T09:01:21;100436.31;;;5.96;100.00
22872;BME280;11603;44.910;8.630;2023-01-27T09:03:47;100439.47;;;6.04;100.00
22872;BME280;11603;44.910;8.630;2023-01-27T09:06:14;100439.25;;;6.09;100.00
22872;BME280;11603;44.910;8.630;2023-01-27T09:08:40;100438.34;;;6.10;100.00
22872;BME280;11603;44.910;8.630;2023-01-27T09:11:08;100445.31;;;6.12;100.00
22872;BME280;11603;44.910;8.630;2023-01-27T09:13:34;100441.56;;;6.16;100.00
22872;BME280;11603;44.910;8.630;2023-01-27T09:15:59;100438.91;;;6.16;100.00
22872;BME280;11603;44.910;8.630;2023-01-27T09:18:25;100445.88;;;6.19;100.00
22872;BME280;11603;44.910;8.630;2023-01-27T09:20:50;100438.41;;;6.27;100.00
22872;BME280;11603;44.910;8.630;2023-01-27T09:23:16;100444.09;;;6.38;100.00
22872;BME280;11603;44.910;8.630;2023-01-27T09:25:41;100443.72;;;6.46;100.00
22872;BME280;11603;44.910;8.630;2023-01-27T09:28:07;100448.16;;;6.45;100.00
22872;BME280;11603;44.910;8.630;2023-01-27T09:30:41;100449.72;;;6.49;100.00
22872;BME280;11603;44.910;8.630;2023-01-27T09:33:07;100439.03;;;6.51;100.00
22872;BME280;11603;44.910;8.630;2023-01-27T09:35:38;100432.63;;;6.55;100.00
22872;BME280;11603;44.910;8.630;2023-01-27T09:38:06;100443.84;;;6.61;100.00
22872;BME280;11603;44.910;8.630;2023-01-27T09:43:38;100454.00;;;6.70;100.00
22872;BME280;11603;44.910;8.630;2023-01-27T10:00:14;100470.59;;;6.94;100.00
22872;BME280;11603;44.910;8.630;2023-01-27T10:08:11;100455.91;;;7.21;100.00
22872;BME280;11603;44.910;8.630;2023-01-27T10:13:33;100462.00;;;7.41;100.00
22872;BME280;11603;44.910;8.630;2023-01-27T10:21:44;100453.53;;;7.84;100.00
22872;BME280;11603;44.910;8.630;2023-01-27T10:27:00;100454.28;;;8.19;100.00
22872;BME280;11603;44.910;8.630;2023-01-27T10:30:12;100451.88;;;8.15;100.00
22872;BME280;11603;44.910;8.630;2023-01-27T10:32:49;100450.03;;;7.99;100.00
22872;BME280;11603;44.910;8.630;2023-01-27T10:35:27;100451.25;;;8.09;100.00
22872;BME280;11603;44.910;8.630;2023-01-27T10:38:07;100445.50;;;8.17;100.00
22872;BME280;11603;44.910;8.630;2023-01-27T10:45:52;100443.94;;;8.30;100.00
22872;BME280;11603;44.910;8.630;2023-01-27T10:48:58;100443.59;;;8.36;100.00
22872;BME280;11603;44.910;8.630;2023-01-27T10:51:19;100439.47;;;8.46;100.00
22872;BME280;11603;44.910;8.630;2023-01-27T10:54:08;100438.16;;;8.69;100.00
22872;BME280;11603;44.910;8.630;2023-01-27T11:01:43;100424.13;;;8.81;100.00
22872;BME280;11603;44.910;8.630;2023-01-27T11:06:54;100423.22;;;9.12;100.00
22872;BME280;11603;44.910;8.630;2023-01-27T11:11:59;100420.53;;;9.12;100.00
22872;BME280;11603;44.910;8.630;2023-01-27T11:14:28;100420.34;;;9.31;100.00
22872;BME280;11603;44.910;8.630;2023-01-27T11:17:00;100423.75;;;9.33;100.00
22872;BME280;11603;44.910;8.630;2023-01-27T11:19:37;100418.75;;;9.57;100.00
22872;BME280;11603;44.910;8.630;2023-01-27T11:22:15;100410.31;;;9.78;100.00
22872;BME280;11603;44.910;8.630;2023-01-27T11:24:44;100401.59;;;10.03;100.00
22872;BME280;11603;44.910;8.630;2023-01-27T11:27:24;100401.09;;;10.39;95.54
22872;BME280;11603;44.910;8.630;2023-01-27T11:29:54;100393.66;;;10.71;96.92
22872;BME280;11603;44.910;8.630;2023-01-27T11:37:38;100384.72;;;10.85;86.83
22872;BME280;11603;44.910;8.630;2023-01-27T11:40:31;100385.41;;;10.61;87.55
22872;BME280;11603;44.910;8.630;2023-01-27T11:42:58;100391.47;;;10.63;87.83
22872;BME280;11603;44.910;8.630;2023-01-27T11:45:26;100385.88;;;10.81;83.26
22872;BME280;11603;44.910;8.630;2023-01-27T11:47:56;100388.41;;;10.70;84.85
22872;BME280;11603;44.910;8.630;2023-01-27T11:50:29;100384.13;;;10.67;85.18
22872;BME280;11603;44.910;8.630;2023-01-27T11:53:10;100382.59;;;10.63;85.85
22872;BME280;11603;44.910;8.630;2023-01-27T11:55:39;100372.28;;;10.71;84.72
22872;BME280;11603;44.910;8.630;2023-01-27T11:58:29;100370.47;;;10.84;81.42
22872;BME280;11603;44.910;8.630;2023-01-27T12:00:59;100372.56;;;10.93;78.89
22872;BME280;11603;44.910;8.630;2023-01-27T12:06:17;100381.06;;;10.46;78.98
22872;BME280;11603;44.910;8.630;2023-01-27T12:08:47;100370.59;;;10.29;83.02
22872;BME280;11603;44.910;8.630;2023-01-27T12:11:31;100372.47;;;10.27;80.04
22872;BME280;11603;44.910;8.630;2023-01-27T12:14:03;100359.72;;;10.18;76.87
22872;BME280;11603;44.910;8.630;2023-01-27T12:16:42;100370.31;;;10.19;77.08
22872;BME280;11603;44.910;8.630;2023-01-27T12:19:31;100356.25;;;10.30;75.99
22872;BME280;11603;44.910;8.630;2023-01-27T12:22:04;100359.97;;;10.28;74.38
22872;BME280;11603;44.910;8.630;2023-01-27T12:24:39;100341.25;;;10.28;78.25
22872;BME280;11603;44.910;8.630;2023-01-27T12:27:06;100340.72;;;10.23;73.22
22872;BME280;11603;44.910;8.630;2023-01-27T12:29:41;100353.97;;;10.24;73.24
22872;BME280;11603;44.910;8.630;2023-01-27T12:32:22;100343.47;;;10.35;73.10
22872;BME280;11603;44.910;8.630;2023-01-27T12:34:51;100338.75;;;10.39;77.31
22872;BME280;11603;44.910;8.630;2023-01-27T12:37:26;100328.13;;;10.51;74.21
22872;BME280;11603;44.910;8.630;2023-01-27T12:40:03;100337.59;;;10.43;72.28
22872;BME280;11603;44.910;8.630;2023-01-27T12:42:42;100335.19;;;10.26;71.52
22872;BME280;11603;44.910;8.630;2023-01-27T12:50:23;100317.31;;;10.12;73.26
22872;BME280;11603;44.910;8.630;2023-01-27T12:53:03;100316.19;;;10.16;73.46
22872;BME280;11603;44.910;8.630;2023-01-27T12:55:36;100313.78;;;10.11;74.99
22872;BME280;11603;44.910;8.630;2023-01-27T12:58:03;100316.09;;;10.17;80.16
22872;BME280;11603;44.910;8.630;2023-01-27T13:00:29;100318.94;;;10.14;74.15
22872;BME280;11603;44.910;8.630;2023-01-27T13:03:03;100318.47;;;10.08;73.80
22872;BME280;11603;44.910;8.630;2023-01-27T13:05:35;100310.53;;;10.06;72.55
22872;BME280;11603;44.910;8.630;2023-01-27T13:08:02;100317.69;;;10.06;71.76
22872;BME280;11603;44.910;8.630;2023-01-27T13:10:27;100312.56;;;10.03;70.63
22872;BME280;11603;44.910;8.630;2023-01-27T13:12:57;100315.72;;;9.95;71.13
22872;BME280;11603;44.910;8.630;2023-01-27T13:15:25;100319.38;;;9.94;71.43
22872;BME280;11603;44.910;8.630;2023-01-27T13:18:01;100317.69;;;10.06;72.65
22872;BME280;11603;44.910;8.630;2023-01-27T13:20:42;100320.50;;;9.90;70.38
22872;BME280;11603;44.910;8.630;2023-01-27T13:23:14;100322.72;;;9.84;71.05
22872;BME280;11603;44.910;8.630;2023-01-27T13:25:56;100324.97;;;9.90;73.76
22872;BME280;11603;44.910;8.630;2023-01-27T13:28:33;100316.56;;;9.96;73.52
22872;BME280;11603;44.910;8.630;2023-01-27T13:31:11;100314.69;;;9.98;74.91
22872;BME280;11603;44.910;8.630;2023-01-27T13:36:44;100320.31;;;9.93;75.23
22872;BME280;11603;44.910;8.630;2023-01-27T13:44:59;100319.06;;;9.99;76.33
22872;BME280;11603;44.910;8.630;2023-01-27T13:47:29;100325.09;;;9.88;81.07
22872;BME280;11603;44.910;8.630;2023-01-27T13:50:29;100313.38;;;9.76;87.21
22872;BME280;11603;44.910;8.630;2023-01-27T13:52:58;100328.16;;;9.68;85.87
22872;BME280;11603;44.910;8.630;2023-01-27T14:01:04;100324.34;;;9.72;84.59
22872;BME280;11603;44.910;8.630;2023-01-27T14:08:48;100327.00;;;9.72;75.93
22872;BME280;11603;44.910;8.630;2023-01-27T14:11:33;100328.75;;;9.73;76.11
22872;BME280;11603;44.910;8.630;2023-01-27T14:14:09;100324.34;;;9.72;75.98
22872;BME280;11603;44.910;8.630;2023-01-27T14:19:42;100317.66;;;9.65;75.50
22872;BME280;11603;44.910;8.630;2023-01-27T14:27:17;100326.44;;;9.67;70.60
22872;BME280;11603;44.910;8.630;2023-01-27T14:30:12;100325.75;;;9.63;70.37
22872;BME280;11603;44.910;8.630;2023-01-27T14:33:33;100324.94;;;9.63;69.00
22872;BME280;11603;44.910;8.630;2023-01-27T14:38:30;100327.84;;;9.58;68.41
22872;BME280;11603;44.910;8.630;2023-01-27T14:44:48;100327.59;;;9.63;70.26
22872;BME280;11603;44.910;8.630;2023-01-27T14:47:25;100339.03;;;9.51;69.57
22872;BME280;11603;44.910;8.630;2023-01-27T14:52:57;100330.06;;;9.52;68.80
22872;BME280;11603;44.910;8.630;2023-01-27T14:58:35;100337.59;;;9.45;68.21